createdAt,value
2023-03-28T00:01:33.487Z,6.60
2023-03-28T00:04:38.242Z,6.35
2023-03-28T00:07:42.861Z,6.19
2023-03-28T00:10:47.605Z,6.30
2023-03-28T00:13:58.549Z,6.57
2023-03-28T00:17:02.855Z,6.55
2023-03-28T00:20:08.997Z,6.47
2023-03-28T00:23:14.066Z,6.99
2023-03-28T00:26:18.131Z,6.70
2023-03-28T00:29:23.956Z,7.35
2023-03-28T00:32:28.819Z,7.86
2023-03-28T00:35:33.672Z,7.83
2023-03-28T00:38:39.612Z,8.16
2023-03-28T00:41:45.741Z,8.21
2023-03-28T00:44:58.350Z,8.77
2023-03-28T00:48:15.153Z,8.98
2023-03-28T00:51:24.750Z,9.69
2023-03-28T00:54:35.226Z,10.24
2023-03-28T00:57:41.892Z,10.51
2023-03-28T01:00:49.803Z,10.62
2023-03-28T01:04:03.128Z,10.30
2023-03-28T01:07:08.166Z,10.62
2023-03-28T01:10:15.650Z,11.54
2023-03-28T01:13:25.017Z,11.94
2023-03-28T01:16:31.705Z,11.20
2023-03-28T01:19:51.286Z,12.06
2023-03-28T01:23:24.146Z,12.52
2023-03-28T01:26:50.116Z,12.97
2023-03-28T01:30:37.890Z,12.99
2023-03-28T01:34:20.138Z,13.08
2023-03-28T01:37:42.931Z,13.22
2023-03-28T01:40:52.444Z,13.68
2023-03-28T01:48:21.631Z,12.94
2023-03-28T01:51:43.010Z,13.87
2023-03-28T01:55:24.058Z,14.13
2023-03-28T01:58:36.711Z,14.15
2023-03-28T02:02:12.093Z,13.93
2023-03-28T02:05:20.225Z,13.46
2023-03-28T02:08:30.436Z,13.17
2023-03-28T02:12:03.063Z,13.02
2023-03-28T02:15:49.282Z,12.51
2023-03-28T02:19:14.176Z,12.47
2023-03-28T02:23:14.802Z,12.90
2023-03-28T02:26:39.040Z,13.08
2023-03-28T02:30:05.589Z,13.30
2023-03-28T02:33:38.707Z,13.17
2023-03-28T02:36:58.292Z,13.11
2023-03-28T02:40:43.301Z,12.85
2023-03-28T02:44:04.188Z,13.18
2023-03-28T02:47:35.569Z,13.18
2023-03-28T02:50:58.251Z,13.46
2023-03-28T02:54:21.354Z,13.29
2023-03-28T02:57:52.916Z,13.17
2023-03-28T03:00:57.677Z,13.26
2023-03-28T03:04:02.122Z,13.14
2023-03-28T03:07:09.781Z,13.10
2023-03-28T03:10:15.337Z,13.32
2023-03-28T03:13:22.840Z,13.03
2023-03-28T03:16:29.994Z,12.78
2023-03-28T03:19:35.874Z,13.16
2023-03-28T03:22:42.353Z,12.98
2023-03-28T03:25:51.447Z,12.88
2023-03-28T03:29:16.049Z,13.08
2023-03-28T03:32:22.344Z,13.02
2023-03-28T03:35:42.776Z,13.18
2023-03-28T03:38:48.401Z,12.97
2023-03-28T03:41:58.284Z,13.08
2023-03-28T03:45:02.652Z,13.19
2023-03-28T03:48:08.268Z,13.31
2023-03-28T03:51:12.696Z,13.07
2023-03-28T03:54:17.039Z,12.91
2023-03-28T03:57:21.661Z,12.69
2023-03-28T04:00:32.815Z,12.92
2023-03-28T04:03:37.472Z,12.65
2023-03-28T04:06:43.972Z,12.93
2023-03-28T04:09:49.260Z,13.07
2023-03-28T04:12:53.582Z,12.99
2023-03-28T04:15:58.418Z,12.87
2023-03-28T04:19:31.779Z,13.03
2023-03-28T04:22:36.748Z,13.14
2023-03-28T04:26:01.826Z,13.06
2023-03-28T04:29:32.462Z,12.69
2023-03-28T04:32:55.501Z,12.41
2023-03-28T04:36:03.446Z,12.64
2023-03-28T04:39:08.800Z,12.58
2023-03-28T04:42:36.545Z,12.28
2023-03-28T04:46:04.569Z,12.38
2023-03-28T04:49:08.890Z,12.50
2023-03-28T04:52:16.654Z,12.49
2023-03-28T04:55:25.080Z,12.51
2023-03-28T04:58:29.968Z,12.64
2023-03-28T05:01:35.615Z,12.68
2023-03-28T05:05:08.636Z,12.77
2023-03-28T05:08:14.423Z,12.83
2023-03-28T05:11:19.642Z,12.50
2023-03-28T05:14:24.065Z,12.69
2023-03-28T05:17:41.779Z,12.68
2023-03-28T05:21:07.009Z,12.56
2023-03-28T05:24:11.753Z,12.66
2023-03-28T05:27:16.515Z,12.53
2023-03-28T05:30:21.815Z,12.51
2023-03-28T05:33:31.080Z,12.45
2023-03-28T05:36:36.380Z,12.56
2023-03-28T05:39:40.780Z,12.68
2023-03-28T05:42:45.569Z,12.64
2023-03-28T05:45:55.765Z,12.45
2023-03-28T05:49:06.331Z,12.45
2023-03-28T05:52:10.535Z,12.55
2023-03-28T05:55:16.691Z,12.70
2023-03-28T05:58:21.917Z,12.42
2023-03-28T06:01:29.870Z,12.29
2023-03-28T06:04:41.112Z,11.95
2023-03-28T06:07:49.839Z,12.33
2023-03-28T06:11:03.661Z,12.10
2023-03-28T06:14:22.843Z,12.23
2023-03-28T06:17:30.277Z,12.34
2023-03-28T06:20:39.971Z,12.27
2023-03-28T06:23:45.051Z,12.19
2023-03-28T06:27:05.912Z,11.95
2023-03-28T06:30:18.437Z,11.83
2023-03-28T06:33:27.457Z,11.83
2023-03-28T06:36:36.251Z,11.90
2023-03-28T06:39:43.126Z,11.97
2023-03-28T06:42:48.917Z,11.81
2023-03-28T06:46:07.975Z,11.98
2023-03-28T06:49:15.996Z,12.15
2023-03-28T06:52:38.468Z,12.03
2023-03-28T06:55:48.349Z,11.91
2023-03-28T06:58:55.719Z,11.78
2023-03-28T07:02:03.610Z,11.80
2023-03-28T07:05:10.220Z,11.84
2023-03-28T07:08:15.267Z,11.68
2023-03-28T07:11:19.406Z,11.66
2023-03-28T07:14:27.244Z,11.57
2023-03-28T07:17:31.646Z,11.55
2023-03-28T07:20:38.751Z,11.48
2023-03-28T07:23:43.140Z,11.33
2023-03-28T07:26:49.291Z,11.44
2023-03-28T07:29:53.148Z,11.27
2023-03-28T07:33:09.359Z,11.25
2023-03-28T07:36:22.946Z,11.21
2023-03-28T07:39:31.684Z,11.13
2023-03-28T07:42:41.631Z,11.10
2023-03-28T07:45:48.569Z,10.96
2023-03-28T07:48:52.928Z,11.02
2023-03-28T07:51:57.353Z,11.14
2023-03-28T07:55:01.882Z,11.13
2023-03-28T07:58:11.732Z,11.12
2023-03-28T08:01:19.454Z,10.98
2023-03-28T08:04:27.989Z,10.83
2023-03-28T08:07:42.836Z,10.68
2023-03-28T08:10:52.922Z,10.81
2023-03-28T08:13:57.365Z,10.50
2023-03-28T08:17:01.912Z,10.46
2023-03-28T08:20:11.882Z,10.31
2023-03-28T08:23:42.077Z,10.32
2023-03-28T08:27:07.031Z,10.10
2023-03-28T08:30:12.037Z,10.13
2023-03-28T08:33:25.426Z,10.21
2023-03-28T08:36:30.040Z,10.13
2023-03-28T08:39:35.469Z,10.02
2023-03-28T08:43:00.307Z,9.50
2023-03-28T08:46:05.182Z,9.82
2023-03-28T08:49:16.127Z,9.75
2023-03-28T08:52:21.711Z,9.54
2023-03-28T08:55:42.100Z,9.46
2023-03-28T08:59:29.438Z,9.57
2023-03-28T09:02:34.048Z,9.48
2023-03-28T09:05:57.257Z,9.25
2023-03-28T09:09:15.362Z,9.18
2023-03-28T09:12:27.596Z,9.00
2023-03-28T09:15:39.991Z,8.90
2023-03-28T09:19:16.879Z,8.43
2023-03-28T09:22:57.426Z,8.44
2023-03-28T09:26:20.957Z,8.00
2023-03-28T09:29:29.643Z,7.81
2023-03-28T09:32:40.843Z,7.95
2023-03-28T09:35:48.235Z,7.96
2023-03-28T09:38:58.165Z,7.87
2023-03-28T09:42:24.413Z,7.77
2023-03-28T09:45:59.174Z,7.20
2023-03-28T09:49:06.578Z,6.81
2023-03-28T09:52:18.725Z,6.57
2023-03-28T09:55:27.354Z,6.36
2023-03-28T09:58:47.945Z,6.24
2023-03-28T10:02:33.215Z,5.93
2023-03-28T10:05:44.191Z,5.80
2023-03-28T10:09:30.197Z,5.79
2023-03-28T10:12:40.599Z,5.76
2023-03-28T10:15:55.036Z,5.49
2023-03-28T10:19:36.722Z,5.68
2023-03-28T10:22:55.605Z,5.19
2023-03-28T10:26:04.945Z,5.17
2023-03-28T10:29:11.931Z,5.24
2023-03-28T10:32:29.283Z,5.20
2023-03-28T10:36:26.603Z,4.84
2023-03-28T10:39:36.306Z,4.83
2023-03-28T10:43:19.044Z,4.61
2023-03-28T10:47:28.697Z,4.51
2023-03-28T10:50:42.874Z,4.46
2023-03-28T10:53:57.797Z,4.50
2023-03-28T10:57:22.170Z,4.49
2023-03-28T11:00:43.981Z,4.12
2023-03-28T11:04:04.636Z,3.84
2023-03-28T11:07:34.981Z,3.37
2023-03-28T11:11:37.509Z,3.42
2023-03-28T11:15:03.498Z,3.37
2023-03-28T11:18:32.930Z,3.45
2023-03-28T11:21:50.484Z,2.92
2023-03-28T11:25:14.495Z,2.82
2023-03-28T11:29:06.936Z,2.89
2023-03-28T11:32:28.461Z,2.63
2023-03-28T11:36:08.479Z,2.55
2023-03-28T11:39:28.291Z,2.63
2023-03-28T11:42:42.187Z,2.47
2023-03-28T11:45:58.393Z,2.63
2023-03-28T11:49:20.823Z,2.50
2023-03-28T11:52:36.622Z,2.20
2023-03-28T11:55:52.253Z,2.08
2023-03-28T11:59:38.786Z,2.11
2023-03-28T12:02:54.367Z,2.03
2023-03-28T12:06:23.899Z,2.09
2023-03-28T12:10:01.113Z,1.96
2023-03-28T12:13:13.753Z,1.93
2023-03-28T12:16:42.167Z,1.88
2023-03-28T12:19:54.680Z,1.67
2023-03-28T12:23:10.124Z,1.91
2023-03-28T12:27:26.574Z,1.78
2023-03-28T12:31:08.433Z,1.67
2023-03-28T12:34:30.749Z,1.46
2023-03-28T12:38:35.455Z,1.67
2023-03-28T12:42:09.432Z,1.04
2023-03-28T12:45:48.645Z,1.08
2023-03-28T12:49:05.373Z,0.98
2023-03-28T12:52:19.067Z,1.07
2023-03-28T12:55:27.359Z,1.39
2023-03-28T12:58:38.920Z,1.13
2023-03-28T13:01:49.592Z,1.04
2023-03-28T13:05:00.227Z,0.59
2023-03-28T13:08:47.330Z,0.75
2023-03-28T13:12:04.177Z,0.47
2023-03-28T13:15:14.655Z,0.64
2023-03-28T13:18:20.947Z,0.55
2023-03-28T13:21:52.710Z,0.78
2023-03-28T13:25:28.273Z,0.66
2023-03-28T13:28:37.045Z,0.34
2023-03-28T13:31:44.993Z,0.54
2023-03-28T13:34:58.558Z,0.49
2023-03-28T13:38:37.414Z,0.23
2023-03-28T13:41:48.002Z,0.32
2023-03-28T13:44:55.155Z,0.30
2023-03-28T13:48:12.125Z,0.19
2023-03-28T13:51:27.527Z,0.38
2023-03-28T13:54:33.093Z,0.54
2023-03-28T13:57:38.044Z,0.10
2023-03-28T14:00:42.337Z,0.20
2023-03-28T14:03:49.941Z,-0.08
2023-03-28T14:06:56.030Z,-0.25
2023-03-28T14:10:00.637Z,-0.09
2023-03-28T14:13:19.875Z,-0.13
2023-03-28T14:16:24.324Z,0.07
2023-03-28T14:19:40.498Z,-0.19
2023-03-28T14:22:59.094Z,-0.30
2023-03-28T14:26:14.566Z,-0.09
2023-03-28T14:29:20.417Z,-0.22
2023-03-28T14:32:31.174Z,-0.47
2023-03-28T14:35:36.631Z,-0.26
2023-03-28T14:38:41.196Z,-0.37
2023-03-28T14:41:45.709Z,-0.11
2023-03-28T14:44:54.603Z,-0.18
2023-03-28T14:47:59.898Z,-0.32
2023-03-28T14:51:06.594Z,-0.40
2023-03-28T14:54:16.250Z,-0.47
2023-03-28T14:57:20.975Z,-0.60
2023-03-28T15:00:38.480Z,-0.91
2023-03-28T15:03:47.335Z,-0.83
2023-03-28T15:06:57.145Z,-0.63
2023-03-28T15:10:07.815Z,-0.59
2023-03-28T15:13:32.722Z,-0.88
2023-03-28T15:16:44.054Z,-0.58
2023-03-28T15:19:53.751Z,-0.59
2023-03-28T15:23:01.097Z,-0.93
2023-03-28T15:26:23.233Z,-0.73
2023-03-28T15:29:29.600Z,-0.95
2023-03-28T15:32:35.143Z,-0.78
2023-03-28T15:35:41.354Z,-0.70
2023-03-28T15:38:49.989Z,-0.96
2023-03-28T15:42:00.149Z,-0.76
2023-03-28T15:45:12.835Z,-0.73
2023-03-28T15:48:20.901Z,-0.84
2023-03-28T15:51:25.554Z,-1.11
2023-03-28T15:54:32.040Z,-0.92
2023-03-28T15:57:37.181Z,-0.86
2023-03-28T16:00:44.873Z,-1.11
2023-03-28T16:03:50.481Z,-1.23
2023-03-28T16:07:12.050Z,-1.13
2023-03-28T16:10:25.916Z,-0.73
2023-03-28T16:13:49.041Z,-0.56
2023-03-28T16:17:19.528Z,-0.44
2023-03-28T16:20:34.455Z,-0.09
2023-03-28T16:23:41.660Z,0.20
2023-03-28T16:26:46.348Z,1.00
2023-03-28T16:29:51.300Z,1.41
2023-03-28T16:32:55.613Z,1.79
2023-03-28T16:36:00.769Z,1.88
2023-03-28T16:39:07.158Z,1.72
2023-03-28T16:42:11.870Z,2.07
2023-03-28T16:45:16.834Z,2.10
2023-03-28T16:48:21.665Z,2.55
2023-03-28T16:51:26.296Z,2.64
2023-03-28T16:54:30.581Z,2.68
2023-03-28T16:57:35.162Z,2.83
2023-03-28T17:00:39.523Z,2.90
2023-03-28T17:03:44.123Z,2.91
2023-03-28T17:06:48.050Z,2.99
2023-03-28T17:09:53.244Z,3.01
2023-03-28T17:12:57.623Z,3.24
2023-03-28T17:16:02.037Z,3.23
2023-03-28T17:19:06.385Z,3.12
2023-03-28T17:22:10.754Z,3.25
2023-03-28T17:25:16.230Z,3.25
2023-03-28T17:28:20.881Z,3.23
2023-03-28T17:31:25.925Z,3.20
2023-03-28T17:34:33.511Z,3.15
2023-03-28T17:37:39.427Z,3.08
2023-03-28T17:40:52.745Z,3.28
2023-03-28T17:43:58.580Z,3.36
2023-03-28T17:47:02.710Z,3.18
2023-03-28T17:50:08.403Z,3.13
2023-03-28T17:53:12.680Z,2.75
2023-03-28T17:56:17.774Z,2.93
2023-03-28T17:59:23.187Z,3.06
2023-03-28T18:02:27.878Z,3.08
2023-03-28T18:05:52.860Z,2.96
2023-03-28T18:08:57.821Z,2.88
2023-03-28T18:12:02.185Z,2.80
2023-03-28T18:15:07.201Z,3.02
2023-03-28T18:18:13.927Z,2.87
2023-03-28T18:21:18.599Z,2.80
2023-03-28T18:24:23.202Z,2.82
2023-03-28T18:27:27.573Z,2.75
2023-03-28T18:30:32.483Z,2.77
2023-03-28T18:33:37.368Z,2.62
2023-03-28T18:36:42.923Z,2.58
2023-03-28T18:39:47.560Z,2.71
2023-03-28T18:42:52.114Z,2.71
2023-03-28T18:45:57.009Z,2.75
2023-03-28T18:49:02.696Z,2.70
2023-03-28T18:52:06.998Z,2.66
2023-03-28T18:55:12.950Z,2.62
2023-03-28T18:58:17.027Z,2.64
2023-03-28T19:01:21.747Z,2.62
2023-03-28T19:04:27.186Z,2.49
2023-03-28T19:07:31.943Z,2.57
2023-03-28T19:10:36.469Z,2.55
2023-03-28T19:13:42.337Z,2.59
2023-03-28T19:16:46.339Z,2.26
2023-03-28T19:19:50.826Z,2.42
2023-03-28T19:22:55.074Z,2.58
2023-03-28T19:26:01.950Z,2.46
2023-03-28T19:29:06.814Z,2.36
2023-03-28T19:32:11.071Z,2.39
2023-03-28T19:35:23.564Z,2.27
2023-03-28T19:38:28.900Z,2.13
2023-03-28T19:41:33.482Z,2.26
2023-03-28T19:44:38.122Z,2.53
2023-03-28T19:47:42.779Z,2.22
2023-03-28T19:50:50.972Z,2.41
2023-03-28T19:53:57.734Z,2.39
2023-03-28T19:57:02.196Z,2.06
2023-03-28T20:00:08.772Z,2.23
2023-03-28T20:03:19.949Z,2.06
2023-03-28T20:06:24.524Z,2.16
2023-03-28T20:09:28.766Z,1.92
2023-03-28T20:12:33.411Z,2.14
2023-03-28T20:15:42.831Z,2.11
2023-03-28T20:18:47.529Z,1.95
2023-03-28T20:21:51.936Z,1.98
2023-03-28T20:24:57.071Z,1.83
2023-03-28T20:28:03.660Z,1.96
2023-03-28T20:31:10.188Z,1.90
2023-03-28T20:34:14.817Z,1.96
2023-03-28T20:37:20.996Z,1.88
2023-03-28T20:40:25.976Z,1.70
2023-03-28T20:43:31.611Z,1.83
2023-03-28T20:46:39.731Z,1.85
2023-03-28T20:49:47.285Z,1.89
2023-03-28T20:52:52.606Z,2.00
2023-03-28T20:56:06.130Z,1.94
2023-03-28T20:59:10.466Z,2.06
2023-03-28T21:02:15.670Z,1.61
2023-03-28T21:05:20.353Z,2.12
2023-03-28T21:08:28.649Z,2.08
2023-03-28T21:11:35.535Z,2.06
2023-03-28T21:14:40.320Z,2.01
2023-03-28T21:17:44.797Z,2.06
2023-03-28T21:20:49.119Z,2.23
2023-03-28T21:23:54.016Z,2.34
2023-03-28T21:26:58.585Z,2.38
2023-03-28T21:30:07.843Z,2.41
2023-03-28T21:33:16.933Z,2.21
2023-03-28T21:36:22.265Z,2.25
2023-03-28T21:39:26.793Z,2.85
2023-03-28T21:42:31.707Z,2.76
2023-03-28T21:45:36.612Z,3.40
2023-03-28T21:48:42.539Z,4.06
2023-03-28T21:51:47.438Z,3.82
2023-03-28T21:54:51.690Z,4.30
2023-03-28T21:57:55.931Z,5.60
2023-03-28T22:01:02.261Z,6.65
2023-03-28T22:04:06.437Z,7.38
2023-03-28T22:07:11.673Z,7.99
2023-03-28T22:10:16.201Z,8.49
2023-03-28T22:13:22.145Z,8.97
2023-03-28T22:16:26.845Z,9.55
2023-03-28T22:19:31.764Z,10.03
2023-03-28T22:22:36.612Z,10.07
2023-03-28T22:25:41.303Z,10.16
2023-03-28T22:28:46.785Z,10.03
2023-03-28T22:31:51.290Z,9.80
2023-03-28T22:34:55.180Z,9.36
2023-03-28T22:37:59.760Z,9.24
2023-03-28T22:41:04.357Z,8.59
2023-03-28T22:44:08.506Z,9.24
2023-03-28T22:47:12.927Z,9.62
2023-03-28T22:50:19.332Z,9.58
2023-03-28T22:53:30.338Z,8.84
2023-03-28T22:56:34.760Z,8.94
2023-03-28T22:59:38.882Z,8.90
2023-03-28T23:02:43.349Z,9.10
2023-03-28T23:05:47.826Z,9.55
2023-03-28T23:08:52.134Z,9.41
2023-03-28T23:11:56.589Z,9.46
2023-03-28T23:15:00.571Z,9.57
2023-03-28T23:18:06.715Z,9.71
2023-03-28T23:21:11.317Z,9.45
2023-03-28T23:24:15.936Z,9.48
2023-03-28T23:27:21.064Z,9.43
2023-03-28T23:30:25.517Z,9.36
2023-03-28T23:33:30.097Z,9.47
2023-03-28T23:36:34.375Z,9.45
2023-03-28T23:39:39.084Z,9.37
2023-03-28T23:42:45.080Z,9.24
2023-03-28T23:45:49.920Z,9.14
2023-03-28T23:48:54.240Z,9.20
2023-03-28T23:51:58.298Z,9.38
2023-03-28T23:55:03.120Z,9.34
2023-03-28T23:58:07.581Z,9.20
